createdAt,value
2016-12-21T00:00:41.231Z,25.92
2016-12-21T00:01:40.723Z,25.9
2016-12-21T00:02:41.039Z,25.87
2016-12-21T00:03:41.098Z,25.85
2016-12-21T00:04:41.055Z,25.77
2016-12-21T00:05:41.068Z,25.76
2016-12-21T00:06:41.119Z,25.87
2016-12-21T00:07:41.129Z,25.87
2016-12-21T00:08:41.134Z,25.9
2016-12-21T00:09:42.345Z,25.92
2016-12-21T00:10:41.097Z,25.77
2016-12-21T00:11:41.712Z,25.82
2016-12-21T00:12:41.113Z,25.76
2016-12-21T00:13:41.120Z,25.85
2016-12-21T00:14:41.490Z,25.8
2016-12-21T00:15:41.136Z,25.88
2016-12-21T00:16:41.190Z,25.83
2016-12-21T00:17:41.465Z,25.87
2016-12-21T00:18:41.156Z,25.83
2016-12-21T00:19:41.849Z,25.87
2016-12-21T00:20:42.089Z,25.9
2016-12-21T00:21:40.865Z,25.75
2016-12-21T00:22:41.499Z,25.76
2016-12-21T00:23:41.506Z,25.77
2016-12-21T00:24:40.885Z,25.76
2016-12-21T00:25:41.206Z,25.76
2016-12-21T00:26:40.898Z,25.82
2016-12-21T00:27:40.955Z,25.76
2016-12-21T00:28:41.540Z,25.85
2016-12-21T00:29:41.648Z,25.85
2016-12-21T00:30:41.239Z,25.76
2016-12-21T00:31:41.299Z,25.88
2016-12-21T00:32:41.257Z,25.8
2016-12-21T00:33:41.463Z,25.76
2016-12-21T00:34:41.325Z,25.75
2016-12-21T00:35:42.950Z,25.82
2016-12-21T00:36:41.283Z,25.77
2016-12-21T00:37:41.299Z,25.76
2016-12-21T00:38:41.721Z,25.76
2016-12-21T00:39:41.025Z,25.76
2016-12-21T00:40:41.314Z,25.79
2016-12-21T00:41:41.058Z,25.77
2016-12-21T00:42:41.067Z,25.75
2016-12-21T00:43:41.436Z,25.75
2016-12-21T00:44:41.589Z,25.88
2016-12-21T00:45:41.089Z,25.77
2016-12-21T00:46:41.045Z,25.75
2016-12-21T00:47:41.052Z,25.75
2016-12-21T00:48:41.420Z,25.8
2016-12-21T00:49:41.737Z,25.88
2016-12-21T00:50:41.433Z,25.83
2016-12-21T00:51:41.489Z,25.72
2016-12-21T00:52:41.766Z,25.87
2016-12-21T00:53:41.409Z,25.8
2016-12-21T00:54:41.465Z,25.82
2016-12-21T00:55:41.835Z,25.82
2016-12-21T00:56:41.477Z,25.83
2016-12-21T00:57:43.075Z,25.8
2016-12-21T00:58:41.835Z,25.72
2016-12-21T00:59:41.449Z,25.8
2016-12-21T01:00:41.461Z,25.79
2016-12-21T01:01:41.774Z,25.76
2016-12-21T01:02:41.782Z,25.8
2016-12-21T01:03:41.475Z,25.79
2016-12-21T01:04:41.696Z,25.83
2016-12-21T01:05:41.226Z,25.75
2016-12-21T01:06:41.809Z,25.82
2016-12-21T01:07:41.197Z,25.85
2016-12-21T01:08:42.876Z,25.76
2016-12-21T01:09:41.205Z,25.82
2016-12-21T01:10:41.724Z,25.83
2016-12-21T01:11:41.219Z,25.73
2016-12-21T01:12:41.225Z,25.77
2016-12-21T01:13:41.547Z,25.83
2016-12-21T01:14:41.600Z,25.76
2016-12-21T01:15:41.612Z,25.8
2016-12-21T01:16:41.976Z,25.76
2016-12-21T01:17:41.885Z,25.79
2016-12-21T01:18:41.269Z,25.82
2016-12-21T01:19:42.766Z,25.82
2016-12-21T01:20:41.649Z,25.79
2016-12-21T01:21:41.917Z,25.87
2016-12-21T01:22:41.656Z,25.8
2016-12-21T01:23:41.618Z,25.73
2016-12-21T01:24:41.673Z,25.79
2016-12-21T01:25:41.678Z,25.69
2016-12-21T01:26:41.636Z,25.75
2016-12-21T01:27:41.332Z,25.7
2016-12-21T01:28:41.964Z,25.73
2016-12-21T01:29:41.659Z,25.76
2016-12-21T01:30:42.351Z,25.73
2016-12-21T01:31:41.718Z,25.72
2016-12-21T01:32:41.990Z,25.77
2016-12-21T01:33:42.000Z,25.7
2016-12-21T01:34:42.058Z,25.73
2016-12-21T01:35:41.701Z,25.69
2016-12-21T01:36:41.444Z,25.7
2016-12-21T01:37:42.092Z,25.73
2016-12-21T01:38:41.718Z,25.75
2016-12-21T01:39:42.087Z,25.69
2016-12-21T01:40:41.764Z,25.82
2016-12-21T01:41:42.543Z,25.73
2016-12-21T01:42:41.488Z,25.7
2016-12-21T01:43:42.057Z,25.72
2016-12-21T01:44:41.809Z,25.73
2016-12-21T01:45:42.081Z,25.72
2016-12-21T01:46:42.085Z,25.69
2016-12-21T01:47:41.835Z,25.67
2016-12-21T01:48:41.840Z,25.6
2016-12-21T01:49:41.850Z,25.65
2016-12-21T01:50:41.492Z,25.69
2016-12-21T01:51:41.860Z,25.72
2016-12-21T01:52:42.256Z,25.72
2016-12-21T01:53:41.828Z,25.55
2016-12-21T01:54:42.194Z,25.69
2016-12-21T01:55:42.147Z,25.75
2016-12-21T01:56:42.685Z,25.7
2016-12-21T01:57:41.903Z,25.72
2016-12-21T01:58:41.861Z,25.58
2016-12-21T01:59:42.177Z,25.65
2016-12-21T02:00:41.562Z,25.58
2016-12-21T02:01:42.241Z,25.64
2016-12-21T02:02:42.199Z,25.67
2016-12-21T02:03:42.207Z,25.72
2016-12-21T02:04:41.954Z,25.7
2016-12-21T02:05:43.418Z,25.7
2016-12-21T02:06:42.280Z,25.69
2016-12-21T02:07:41.971Z,25.6
2016-12-21T02:08:42.294Z,25.62
2016-12-21T02:09:41.933Z,25.62
2016-12-21T02:10:41.993Z,25.67
2016-12-21T02:11:42.002Z,25.69
2016-12-21T02:12:42.271Z,25.69
2016-12-21T02:13:42.325Z,25.64
2016-12-21T02:14:42.019Z,25.58
2016-12-21T02:15:42.131Z,25.67
2016-12-21T02:16:42.886Z,25.57
2016-12-21T02:17:41.989Z,25.65
2016-12-21T02:18:42.050Z,25.6
2016-12-21T02:19:42.054Z,25.58
2016-12-21T02:20:42.378Z,25.67
2016-12-21T02:21:42.016Z,25.62
2016-12-21T02:22:42.392Z,25.73
2016-12-21T02:23:42.393Z,25.69
2016-12-21T02:24:42.452Z,25.7
2016-12-21T02:25:42.408Z,25.61
2016-12-21T02:26:41.740Z,25.69
2016-12-21T02:27:43.060Z,25.67
2016-12-21T02:28:42.066Z,25.64
2016-12-21T02:29:42.383Z,25.6
2016-12-21T02:30:42.186Z,25.58
2016-12-21T02:31:41.822Z,25.73
2016-12-21T02:32:42.401Z,25.61
2016-12-21T02:33:42.416Z,25.69
2016-12-21T02:34:42.471Z,25.65
2016-12-21T02:35:42.427Z,25.69
2016-12-21T02:36:41.859Z,25.67
2016-12-21T02:37:41.819Z,25.67
2016-12-21T02:38:43.185Z,25.7
2016-12-21T02:39:42.245Z,25.6
2016-12-21T02:40:42.465Z,25.67
2016-12-21T02:41:42.522Z,25.67
2016-12-21T02:42:42.166Z,25.64
2016-12-21T02:43:42.219Z,25.7
2016-12-21T02:44:42.229Z,25.6
2016-12-21T02:45:41.871Z,25.67
2016-12-21T02:46:42.508Z,25.57
2016-12-21T02:47:42.196Z,25.69
2016-12-21T02:48:42.206Z,25.62
2016-12-21T02:49:42.711Z,25.57
2016-12-21T02:50:42.271Z,25.69
2016-12-21T02:51:42.686Z,25.7
2016-12-21T02:52:42.232Z,25.67
2016-12-21T02:53:43.201Z,25.67
2016-12-21T02:54:42.556Z,25.58
2016-12-21T02:55:42.308Z,25.58
2016-12-21T02:56:41.946Z,25.62
2016-12-21T02:57:42.264Z,25.64
2016-12-21T02:58:42.275Z,25.6
2016-12-21T02:59:42.327Z,25.58
2016-12-21T03:00:42.338Z,25.57
2016-12-21T03:01:42.710Z,25.57
2016-12-21T03:02:42.301Z,25.58
2016-12-21T03:03:41.996Z,25.62
2016-12-21T03:04:43.165Z,25.62
2016-12-21T03:05:42.632Z,25.6
2016-12-21T03:06:42.331Z,25.61
2016-12-21T03:07:42.386Z,25.6
2016-12-21T03:08:42.352Z,25.55
2016-12-21T03:09:42.400Z,25.58
2016-12-21T03:10:42.654Z,25.6
2016-12-21T03:11:42.419Z,25.65
2016-12-21T03:12:42.056Z,25.58
2016-12-21T03:13:43.928Z,25.55
2016-12-21T03:14:42.695Z,25.61
2016-12-21T03:15:42.388Z,25.67
2016-12-21T03:16:42.482Z,25.69
2016-12-21T03:17:42.403Z,25.6
2016-12-21T03:18:42.408Z,25.61
2016-12-21T03:19:42.418Z,25.62
2016-12-21T03:20:42.423Z,25.6
2016-12-21T03:21:42.207Z,25.61
2016-12-21T03:22:42.897Z,25.6
2016-12-21T03:23:42.848Z,25.54
2016-12-21T03:24:42.188Z,25.57
2016-12-21T03:25:42.300Z,25.62
2016-12-21T03:26:43.012Z,25.58
2016-12-21T03:27:42.161Z,25.54
2016-12-21T03:28:42.890Z,25.57
2016-12-21T03:29:42.799Z,25.57
2016-12-21T03:30:42.804Z,25.55
2016-12-21T03:31:42.810Z,25.57
2016-12-21T03:32:42.190Z,25.61
2016-12-21T03:33:42.823Z,25.55
2016-12-21T03:34:42.879Z,25.6
2016-12-21T03:35:43.889Z,25.61
2016-12-21T03:36:42.218Z,25.57
2016-12-21T03:37:42.726Z,25.54
2016-12-21T03:38:42.909Z,25.55
2016-12-21T03:39:43.577Z,25.57
2016-12-21T03:40:42.613Z,25.6
2016-12-21T03:41:42.668Z,25.57
2016-12-21T03:42:42.574Z,25.57
2016-12-21T03:43:42.894Z,25.6
2016-12-21T03:44:42.271Z,25.61
2016-12-21T03:45:42.775Z,25.65
2016-12-21T03:46:42.648Z,25.55
2016-12-21T03:47:42.303Z,25.61
2016-12-21T03:48:42.749Z,25.61
2016-12-21T03:49:42.668Z,25.52
2016-12-21T03:50:44.193Z,25.58
2016-12-21T03:51:42.783Z,25.65
2016-12-21T03:52:42.696Z,25.57
2016-12-21T03:53:42.964Z,25.55
2016-12-21T03:54:42.392Z,25.64
2016-12-21T03:55:42.660Z,25.64
2016-12-21T03:56:42.406Z,25.57
2016-12-21T03:57:42.412Z,25.6
2016-12-21T03:58:42.682Z,25.64
2016-12-21T03:59:43.140Z,25.6
2016-12-21T04:00:42.749Z,25.6
2016-12-21T04:01:42.805Z,25.58
2016-12-21T04:02:42.711Z,25.62
2016-12-21T04:03:42.713Z,25.57
2016-12-21T04:04:43.034Z,25.55
2016-12-21T04:05:42.468Z,25.52
2016-12-21T04:06:43.048Z,25.54
2016-12-21T04:07:42.794Z,25.47
2016-12-21T04:08:42.753Z,25.5
2016-12-21T04:09:43.169Z,25.45
2016-12-21T04:10:42.913Z,25.55
2016-12-21T04:11:42.818Z,25.43
2016-12-21T04:12:44.330Z,25.45
2016-12-21T04:13:42.786Z,25.54
2016-12-21T04:14:43.156Z,25.52
2016-12-21T04:15:43.117Z,25.47
2016-12-21T04:16:42.811Z,25.54
2016-12-21T04:17:42.845Z,25.5
2016-12-21T04:18:43.183Z,25.52
2016-12-21T04:19:42.878Z,25.61
2016-12-21T04:20:43.146Z,25.51
2016-12-21T04:21:42.592Z,25.46
2016-12-21T04:22:43.210Z,25.51
2016-12-21T04:23:43.972Z,25.46
2016-12-21T04:24:43.176Z,25.54
2016-12-21T04:25:43.182Z,25.51
2016-12-21T04:26:43.197Z,25.54
2016-12-21T04:27:42.883Z,25.51
2016-12-21T04:28:42.576Z,25.5
2016-12-21T04:29:42.632Z,25.46
2016-12-21T04:30:43.263Z,25.5
2016-12-21T04:31:43.276Z,25.45
2016-12-21T04:32:42.919Z,25.54
2016-12-21T04:33:42.923Z,25.54
2016-12-21T04:34:44.361Z,25.42
2016-12-21T04:35:43.256Z,25.51
2016-12-21T04:36:43.309Z,25.52
2016-12-21T04:37:43.268Z,25.46
2016-12-21T04:38:42.696Z,25.54
2016-12-21T04:39:42.964Z,25.46
2016-12-21T04:40:43.285Z,25.51
2016-12-21T04:41:43.033Z,25.47
2016-12-21T04:42:42.724Z,25.45
2016-12-21T04:43:43.365Z,25.52
2016-12-21T04:44:43.055Z,25.4
2016-12-21T04:45:43.756Z,25.45
2016-12-21T04:46:42.703Z,25.43
2016-12-21T04:47:42.908Z,25.43
2016-12-21T04:48:43.034Z,25.42
2016-12-21T04:49:43.136Z,25.42
2016-12-21T04:50:42.780Z,25.46
2016-12-21T04:51:43.371Z,25.46
2016-12-21T04:52:43.138Z,25.45
2016-12-21T04:53:43.426Z,25.57
2016-12-21T04:54:43.431Z,25.46
2016-12-21T04:55:43.074Z,25.42
2016-12-21T04:56:43.971Z,25.46
2016-12-21T04:57:42.823Z,25.45
2016-12-21T04:58:43.409Z,25.46
2016-12-21T04:59:43.415Z,25.5
2016-12-21T05:00:43.521Z,25.46
2016-12-21T05:01:43.530Z,25.46
2016-12-21T05:02:42.809Z,25.51
2016-12-21T05:03:43.132Z,25.5
2016-12-21T05:04:42.872Z,25.45
2016-12-21T05:05:43.192Z,25.52
2016-12-21T05:06:43.464Z,25.46
2016-12-21T05:07:43.958Z,25.46
2016-12-21T05:08:43.476Z,25.5
2016-12-21T05:09:43.172Z,25.5
2016-12-21T05:10:43.492Z,25.43
2016-12-21T05:11:44.139Z,25.45
2016-12-21T05:12:43.505Z,25.5
2016-12-21T05:13:43.249Z,25.52
2016-12-21T05:14:43.207Z,25.5
2016-12-21T05:15:43.262Z,25.47
2016-12-21T05:16:43.532Z,25.43
2016-12-21T05:17:43.539Z,25.47
2016-12-21T05:18:43.071Z,25.43
2016-12-21T05:19:43.603Z,25.46
2016-12-21T05:20:45.081Z,25.45
2016-12-21T05:21:43.564Z,25.47
2016-12-21T05:22:43.770Z,25.45
2016-12-21T05:23:43.265Z,25.45
2016-12-21T05:24:43.585Z,25.43
2016-12-21T05:25:43.328Z,25.54
2016-12-21T05:26:42.974Z,25.54
2016-12-21T05:27:43.343Z,25.54
2016-12-21T05:28:43.664Z,25.47
2016-12-21T05:29:43.306Z,25.5
2016-12-21T05:30:43.388Z,25.5
2016-12-21T05:31:44.747Z,25.52
2016-12-21T05:32:43.327Z,25.47
2016-12-21T05:33:43.785Z,25.52
2016-12-21T05:34:43.392Z,25.47
2016-12-21T05:35:43.715Z,25.43
2016-12-21T05:36:43.771Z,25.54
2016-12-21T05:37:43.103Z,25.43
2016-12-21T05:38:43.680Z,25.57
2016-12-21T05:39:43.428Z,25.5
2016-12-21T05:40:43.799Z,25.47
2016-12-21T05:41:43.703Z,25.47
2016-12-21T05:42:44.849Z,25.51
2016-12-21T05:43:43.139Z,25.45
2016-12-21T05:44:43.463Z,25.47
2016-12-21T05:45:43.204Z,25.43
2016-12-21T05:46:43.427Z,25.43
2016-12-21T05:47:43.582Z,25.43
2016-12-21T05:48:43.124Z,25.5
2016-12-21T05:49:43.805Z,25.55
2016-12-21T05:50:43.765Z,25.45
2016-12-21T05:51:43.510Z,25.46
2016-12-21T05:52:43.779Z,25.54
2016-12-21T05:53:44.265Z,25.57
2016-12-21T05:54:43.482Z,25.43
2016-12-21T05:55:43.848Z,25.43
2016-12-21T05:56:43.490Z,25.43
2016-12-21T05:57:43.237Z,25.45
2016-12-21T05:58:43.197Z,25.47
2016-12-21T05:59:43.518Z,25.46
2016-12-21T06:00:43.521Z,25.42
2016-12-21T06:01:43.214Z,25.55
2016-12-21T06:02:43.848Z,25.43
2016-12-21T06:03:43.638Z,25.46
2016-12-21T06:04:44.361Z,25.51
2016-12-21T06:05:43.654Z,25.55
2016-12-21T06:06:43.676Z,25.42
2016-12-21T06:07:43.254Z,25.47
2016-12-21T06:08:44.374Z,25.46
2016-12-21T06:09:43.583Z,25.45
2016-12-21T06:10:43.902Z,25.45
2016-12-21T06:11:43.288Z,25.46
2016-12-21T06:12:44.017Z,25.4
2016-12-21T06:13:43.921Z,25.43
2016-12-21T06:14:43.616Z,25.39
2016-12-21T06:15:43.940Z,25.5
2016-12-21T06:16:43.678Z,25.45
2016-12-21T06:17:43.954Z,25.45
2016-12-21T06:18:43.690Z,25.46
2016-12-21T06:19:44.457Z,25.43
2016-12-21T06:20:43.968Z,25.33
2016-12-21T06:21:43.973Z,25.38
2016-12-21T06:22:43.356Z,25.4
2016-12-21T06:23:44.034Z,25.43
2016-12-21T06:24:44.042Z,25.38
2016-12-21T06:25:43.737Z,25.36
2016-12-21T06:26:43.482Z,25.42
2016-12-21T06:27:44.014Z,25.39
2016-12-21T06:28:45.633Z,25.39
2016-12-21T06:29:43.404Z,25.36
2016-12-21T06:30:43.970Z,25.43
2016-12-21T06:31:43.780Z,25.38
2016-12-21T06:32:43.732Z,25.45
2016-12-21T06:33:43.797Z,25.33
2016-12-21T06:34:44.109Z,25.39
2016-12-21T06:35:43.807Z,25.42
2016-12-21T06:36:43.761Z,25.46
2016-12-21T06:37:44.108Z,25.42
2016-12-21T06:38:43.776Z,25.4
2016-12-21T06:39:43.914Z,25.46
2016-12-21T06:40:43.841Z,25.38
2016-12-21T06:41:44.496Z,25.42
2016-12-21T06:42:44.116Z,25.45
2016-12-21T06:43:43.861Z,25.4
2016-12-21T06:44:43.814Z,25.39
2016-12-21T06:45:44.135Z,25.42
2016-12-21T06:46:43.829Z,25.39
2016-12-21T06:47:43.521Z,25.45
2016-12-21T06:48:44.153Z,25.45
2016-12-21T06:49:44.160Z,25.39
2016-12-21T06:50:44.848Z,25.46
2016-12-21T06:51:44.178Z,25.39
2016-12-21T06:52:44.158Z,25.39
2016-12-21T06:53:44.238Z,25.42
2016-12-21T06:54:44.197Z,25.39
2016-12-21T06:55:44.202Z,25.36
2016-12-21T06:56:44.046Z,25.35
2016-12-21T06:57:43.952Z,25.36
2016-12-21T06:58:43.909Z,25.39
2016-12-21T06:59:44.279Z,25.33
2016-12-21T07:00:43.923Z,25.33
2016-12-21T07:01:43.927Z,25.4
2016-12-21T07:02:43.984Z,25.36
2016-12-21T07:03:44.356Z,25.32
2016-12-21T07:04:44.262Z,25.38
2016-12-21T07:05:45.625Z,25.38
2016-12-21T07:06:44.013Z,25.38
2016-12-21T07:07:44.584Z,25.38
2016-12-21T07:08:43.977Z,25.38
2016-12-21T07:09:44.297Z,25.36
2016-12-21T07:10:43.989Z,25.45
2016-12-21T07:11:43.999Z,25.39
2016-12-21T07:12:44.007Z,25.4
2016-12-21T07:13:44.321Z,25.5
2016-12-21T07:14:44.071Z,25.32
2016-12-21T07:15:43.714Z,25.4
2016-12-21T07:16:45.483Z,25.36
2016-12-21T07:17:44.040Z,25.46
2016-12-21T07:18:44.435Z,25.43
2016-12-21T07:19:44.415Z,25.38
2016-12-21T07:20:44.374Z,25.35
2016-12-21T07:21:44.063Z,25.35
2016-12-21T07:22:44.070Z,25.39
2016-12-21T07:23:44.080Z,25.33
2016-12-21T07:24:44.399Z,25.4
2016-12-21T07:25:44.092Z,25.39
2016-12-21T07:26:44.492Z,25.45
2016-12-21T07:27:45.144Z,25.5
2016-12-21T07:28:44.427Z,25.6
2016-12-21T07:29:44.120Z,25.67
2016-12-21T07:30:44.127Z,25.8
2016-12-21T07:31:44.447Z,25.88
2016-12-21T07:32:44.452Z,25.9
2016-12-21T07:33:44.147Z,25.97
2016-12-21T07:34:44.466Z,26.12
2016-12-21T07:35:44.209Z,26.32
2016-12-21T07:36:45.184Z,26.44
2016-12-21T07:37:44.175Z,26.55
2016-12-21T07:38:44.753Z,26.69
2016-12-21T07:39:44.499Z,26.8
2016-12-21T07:40:45.482Z,26.81
2016-12-21T07:41:44.252Z,26.88
2016-12-21T07:42:44.255Z,26.94
2016-12-21T07:43:44.269Z,26.94
2016-12-21T07:44:44.532Z,27.06
2016-12-21T07:45:44.278Z,27.04
2016-12-21T07:46:43.922Z,27.07
2016-12-21T07:47:43.930Z,27.25
2016-12-21T07:48:44.560Z,27.31
2016-12-21T07:49:44.817Z,27.43
2016-12-21T07:50:44.266Z,27.44
2016-12-21T07:51:44.321Z,27.37
2016-12-21T07:52:44.016Z,27.39
2016-12-21T07:53:44.594Z,27.54
2016-12-21T07:54:44.605Z,27.54
2016-12-21T07:55:44.359Z,27.63
2016-12-21T07:56:44.672Z,27.65
2016-12-21T07:57:44.048Z,27.7
2016-12-21T07:58:44.684Z,27.72
2016-12-21T07:59:44.378Z,27.75
2016-12-21T08:00:44.880Z,27.66
2016-12-21T08:01:44.654Z,27.72
2016-12-21T08:02:44.084Z,27.66
2016-12-21T08:03:44.403Z,27.75
2016-12-21T08:04:44.774Z,27.78
2016-12-21T08:05:44.372Z,27.88
2016-12-21T08:06:44.374Z,28.03
2016-12-21T08:07:44.744Z,28
2016-12-21T08:08:44.389Z,27.96
2016-12-21T08:09:44.447Z,27.84
2016-12-21T08:10:44.406Z,27.93
2016-12-21T08:11:44.923Z,27.92
2016-12-21T08:12:44.422Z,27.72
2016-12-21T08:13:44.729Z,27.67
2016-12-21T08:14:44.796Z,27.65
2016-12-21T08:15:44.130Z,27.67
2016-12-21T08:16:44.447Z,27.67
2016-12-21T08:17:44.453Z,27.6
2016-12-21T08:18:44.467Z,27.7
2016-12-21T08:19:44.467Z,27.59
2016-12-21T08:20:44.478Z,27.51
2016-12-21T08:21:44.484Z,27.51
2016-12-21T08:22:44.840Z,27.57
2016-12-21T08:23:44.238Z,27.6
2016-12-21T08:24:45.725Z,27.57
2016-12-21T08:25:44.823Z,27.51
2016-12-21T08:26:45.029Z,27.43
2016-12-21T08:27:44.532Z,27.37
2016-12-21T08:28:44.895Z,27.49
2016-12-21T08:29:44.280Z,27.44
2016-12-21T08:30:44.337Z,27.43
2016-12-21T08:31:44.566Z,27.54
2016-12-21T08:32:44.924Z,27.46
2016-12-21T08:33:44.308Z,27.5
2016-12-21T08:34:44.942Z,27.5
2016-12-21T08:35:46.208Z,27.47
2016-12-21T08:36:44.642Z,27.41
2016-12-21T08:37:45.012Z,27.51
2016-12-21T08:38:44.606Z,27.49
2016-12-21T08:39:44.662Z,27.51
2016-12-21T08:40:44.616Z,27.49
2016-12-21T08:41:44.317Z,27.44
2016-12-21T08:42:45.044Z,27.37
2016-12-21T08:43:45.018Z,27.5
2016-12-21T08:44:44.965Z,27.43
2016-12-21T08:45:44.706Z,27.7
2016-12-21T08:46:44.402Z,27.54
2016-12-21T08:47:44.721Z,27.66
2016-12-21T08:48:45.197Z,27.51
2016-12-21T08:49:45.054Z,27.4
2016-12-21T08:50:44.694Z,27.5
2016-12-21T08:51:45.020Z,27.55
2016-12-21T08:52:44.752Z,27.51
2016-12-21T08:53:45.025Z,27.51
2016-12-21T08:54:44.802Z,27.66
2016-12-21T08:55:44.461Z,27.69
2016-12-21T08:56:44.421Z,27.66
2016-12-21T08:57:46.280Z,27.6
2016-12-21T08:58:44.745Z,27.57
2016-12-21T08:59:45.168Z,27.49
2016-12-21T09:00:44.764Z,27.6
2016-12-21T09:01:44.772Z,27.74
2016-12-21T09:02:44.464Z,27.72
2016-12-21T09:03:44.881Z,27.69
2016-12-21T09:04:44.790Z,27.69
2016-12-21T09:05:45.111Z,27.67
2016-12-21T09:06:44.544Z,27.67
2016-12-21T09:07:45.177Z,27.62
2016-12-21T09:08:44.548Z,27.72
2016-12-21T09:09:44.874Z,27.69
2016-12-21T09:10:44.973Z,27.77
2016-12-21T09:11:44.841Z,27.7
2016-12-21T09:12:46.265Z,27.75
2016-12-21T09:13:44.857Z,27.78
2016-12-21T09:14:45.175Z,27.81
2016-12-21T09:15:44.607Z,27.81
2016-12-21T09:16:44.881Z,27.85
2016-12-21T09:17:44.887Z,27.81
2016-12-21T09:18:44.994Z,27.87
2016-12-21T09:19:45.449Z,27.9
2016-12-21T09:20:44.957Z,27.79
2016-12-21T09:21:45.275Z,27.85
2016-12-21T09:22:45.370Z,28.02
2016-12-21T09:23:45.850Z,27.97
2016-12-21T09:24:45.246Z,27.97
2016-12-21T09:25:44.681Z,27.93
2016-12-21T09:26:45.003Z,27.9
2016-12-21T09:27:45.270Z,28.03
2016-12-21T09:28:44.701Z,27.99
2016-12-21T09:29:45.021Z,28.03
2016-12-21T09:30:45.293Z,28.03
2016-12-21T09:31:45.348Z,28.06
2016-12-21T09:32:45.410Z,28.11
2016-12-21T09:33:45.054Z,28.15
2016-12-21T09:34:46.496Z,28.27
2016-12-21T09:35:45.325Z,28.21
2016-12-21T09:36:44.763Z,28.24
2016-12-21T09:37:45.034Z,28.27
2016-12-21T09:38:45.043Z,28.29
2016-12-21T09:39:45.099Z,28.24
2016-12-21T09:40:45.102Z,28.3
2016-12-21T09:41:45.069Z,28.4
2016-12-21T09:42:44.755Z,28.36
2016-12-21T09:43:45.074Z,28.4
2016-12-21T09:44:45.147Z,28.34
2016-12-21T09:45:45.984Z,28.43
2016-12-21T09:46:45.199Z,28.31
2016-12-21T09:47:44.893Z,28.43
2016-12-21T09:48:45.480Z,28.39
2016-12-21T09:49:45.129Z,28.33
2016-12-21T09:50:44.869Z,28.4
2016-12-21T09:51:45.506Z,28.27
2016-12-21T09:52:45.460Z,28.34
2016-12-21T09:53:45.204Z,28.39
2016-12-21T09:54:45.164Z,28.29
2016-12-21T09:55:45.223Z,28.37
2016-12-21T09:56:46.384Z,28.41
2016-12-21T09:57:45.502Z,28.31
2016-12-21T09:58:44.943Z,28.39
2016-12-21T09:59:45.718Z,28.33
2016-12-21T10:00:45.527Z,28.37
2016-12-21T10:01:45.273Z,28.3
2016-12-21T10:02:44.919Z,28.33
2016-12-21T10:03:45.602Z,28.34
2016-12-21T10:04:44.936Z,28.22
2016-12-21T10:05:45.251Z,28.33
2016-12-21T10:06:45.316Z,28.21
2016-12-21T10:07:46.382Z,28.25
2016-12-21T10:08:45.641Z,28.18
2016-12-21T10:09:45.329Z,28.17
2016-12-21T10:10:45.345Z,28.14
2016-12-21T10:11:45.047Z,28.06
2016-12-21T10:12:45.316Z,28.11
2016-12-21T10:13:45.371Z,28.11
2016-12-21T10:14:45.381Z,28.14
2016-12-21T10:15:45.652Z,28.07
2016-12-21T10:16:45.034Z,28.17
2016-12-21T10:17:45.463Z,28.03
2016-12-21T10:18:46.463Z,28.02
2016-12-21T10:19:45.734Z,28.04
2016-12-21T10:20:45.379Z,28.06
2016-12-21T10:21:45.701Z,27.99
2016-12-21T10:22:45.451Z,28.12
2016-12-21T10:23:45.405Z,27.96
2016-12-21T10:24:45.531Z,28.04
2016-12-21T10:25:45.109Z,28
2016-12-21T10:26:45.740Z,28.02
2016-12-21T10:27:45.223Z,28.04
2016-12-21T10:28:45.496Z,27.92
2016-12-21T10:29:46.264Z,27.92
2016-12-21T10:30:45.824Z,27.84
2016-12-21T10:31:45.834Z,27.93
2016-12-21T10:32:45.791Z,28
2016-12-21T10:33:45.896Z,27.97
2016-12-21T10:34:45.809Z,28.02
2016-12-21T10:35:45.867Z,27.9
2016-12-21T10:36:45.561Z,27.88
2016-12-21T10:37:45.879Z,27.94
2016-12-21T10:38:45.527Z,28
2016-12-21T10:39:45.847Z,28.06
2016-12-21T10:40:46.257Z,27.97
2016-12-21T10:41:45.863Z,27.96
2016-12-21T10:42:45.926Z,27.97
2016-12-21T10:43:45.566Z,28.03
2016-12-21T10:44:45.571Z,27.94
2016-12-21T10:45:45.894Z,27.93
2016-12-21T10:46:45.688Z,27.85
2016-12-21T10:47:45.653Z,27.93
2016-12-21T10:48:45.966Z,27.84
2016-12-21T10:49:45.351Z,27.94
2016-12-21T10:50:45.619Z,27.87
2016-12-21T10:51:46.342Z,27.82
2016-12-21T10:52:45.736Z,27.92
2016-12-21T10:53:45.692Z,27.94
2016-12-21T10:54:45.651Z,27.87
2016-12-21T10:55:46.617Z,27.84
2016-12-21T10:56:45.821Z,27.92
2016-12-21T10:57:46.326Z,27.92
2016-12-21T10:58:45.995Z,27.87
2016-12-21T10:59:46.012Z,27.81
2016-12-21T11:00:46.011Z,27.84
2016-12-21T11:01:46.069Z,27.87
2016-12-21T11:02:45.751Z,27.81
2016-12-21T11:03:46.087Z,27.85
2016-12-21T11:04:45.731Z,27.81
2016-12-21T11:05:45.785Z,27.87
2016-12-21T11:06:46.693Z,27.87
2016-12-21T11:07:46.112Z,27.84
2016-12-21T11:08:45.815Z,27.85
2016-12-21T11:09:46.119Z,27.82
2016-12-21T11:10:46.086Z,27.92
2016-12-21T11:11:45.779Z,27.88
2016-12-21T11:12:45.787Z,27.85
2016-12-21T11:13:45.536Z,27.87
2016-12-21T11:14:46.222Z,27.81
2016-12-21T11:15:45.549Z,27.84
2016-12-21T11:16:46.135Z,27.82
2016-12-21T11:17:46.489Z,27.87
2016-12-21T11:18:45.885Z,27.87
2016-12-21T11:19:45.531Z,27.81
2016-12-21T11:20:45.903Z,27.84
2016-12-21T11:21:45.860Z,27.85
2016-12-21T11:22:45.556Z,27.77
2016-12-21T11:23:45.973Z,27.88
2016-12-21T11:24:45.933Z,27.77
2016-12-21T11:25:45.944Z,27.79
2016-12-21T11:26:47.539Z,27.79
2016-12-21T11:27:45.909Z,27.75
2016-12-21T11:28:46.028Z,27.79
2016-12-21T11:29:45.949Z,27.69
2016-12-21T11:30:45.932Z,27.72
2016-12-21T11:31:46.299Z,27.7
2016-12-21T11:32:45.945Z,27.5
2016-12-21T11:33:46.274Z,27.41
2016-12-21T11:34:46.061Z,27.25
2016-12-21T11:35:46.281Z,27.21
2016-12-21T11:36:46.024Z,27.19
2016-12-21T11:37:47.399Z,27.19
2016-12-21T11:38:46.042Z,27.12
2016-12-21T11:39:46.215Z,27.13
2016-12-21T11:40:46.317Z,27.14
2016-12-21T11:41:47.519Z,27.17
2016-12-21T11:42:46.334Z,27.17
2016-12-21T11:43:46.177Z,27.28
2016-12-21T11:44:46.086Z,27.31
2016-12-21T11:45:46.357Z,27.13
2016-12-21T11:46:46.351Z,27.14
2016-12-21T11:47:45.846Z,27.27
2016-12-21T11:48:47.219Z,27.12
2016-12-21T11:49:46.124Z,27.28
2016-12-21T11:50:46.186Z,27.29
2016-12-21T11:51:46.410Z,27.32
2016-12-21T11:52:47.171Z,27.39
2016-12-21T11:53:46.107Z,27.32
2016-12-21T11:54:46.209Z,27.31
2016-12-21T11:55:45.905Z,27.37
2016-12-21T11:56:46.180Z,27.27
2016-12-21T11:57:46.452Z,27.29
2016-12-21T11:58:45.882Z,27.43
2016-12-21T11:59:45.886Z,27.41
2016-12-21T12:00:46.255Z,27.4
2016-12-21T12:01:46.566Z,27.4
2016-12-21T12:02:46.218Z,27.29
2016-12-21T12:03:47.943Z,27.51
2016-12-21T12:04:46.497Z,27.57
2016-12-21T12:05:46.509Z,27.65
2016-12-21T12:06:46.301Z,27.55
2016-12-21T12:07:46.257Z,27.59
2016-12-21T12:08:46.263Z,27.59
2016-12-21T12:09:46.223Z,27.59
2016-12-21T12:10:46.542Z,27.65
2016-12-21T12:11:45.974Z,27.69
2016-12-21T12:12:46.296Z,27.85
2016-12-21T12:13:46.568Z,27.79
2016-12-21T12:14:47.401Z,27.85
2016-12-21T12:15:46.630Z,27.7
2016-12-21T12:16:46.328Z,27.81
2016-12-21T12:17:46.649Z,27.82
2016-12-21T12:18:46.703Z,27.74
2016-12-21T12:19:46.659Z,27.78
2016-12-21T12:20:46.668Z,27.85
2016-12-21T12:21:46.413Z,27.85
2016-12-21T12:22:46.007Z,27.82
2016-12-21T12:23:46.529Z,27.69
2016-12-21T12:24:46.373Z,27.69
2016-12-21T12:25:47.899Z,27.77
2016-12-21T12:26:46.093Z,27.67
2016-12-21T12:27:46.356Z,27.81
2016-12-21T12:28:46.679Z,27.78
2016-12-21T12:29:46.687Z,27.7
2016-12-21T12:30:46.389Z,27.69
2016-12-21T12:31:46.464Z,27.74
2016-12-21T12:32:46.086Z,27.59
2016-12-21T12:33:46.094Z,27.43
2016-12-21T12:34:46.663Z,27.51
2016-12-21T12:35:46.471Z,27.59
2016-12-21T12:36:46.172Z,27.66
2016-12-21T12:37:46.120Z,27.67
2016-12-21T12:38:46.960Z,27.63
2016-12-21T12:39:46.791Z,27.65
2016-12-21T12:40:46.826Z,27.6
2016-12-21T12:41:46.778Z,27.62
2016-12-21T12:42:46.217Z,27.63
2016-12-21T12:43:46.484Z,27.65
2016-12-21T12:44:46.866Z,27.66
2016-12-21T12:45:46.810Z,27.62
2016-12-21T12:46:46.817Z,27.72
2016-12-21T12:47:47.959Z,27.62
2016-12-21T12:48:46.259Z,27.62
2016-12-21T12:49:46.525Z,27.67
2016-12-21T12:50:46.533Z,27.66
2016-12-21T12:51:46.541Z,27.55
2016-12-21T12:52:46.959Z,27.66
2016-12-21T12:53:46.866Z,27.55
2016-12-21T12:54:46.880Z,27.55
2016-12-21T12:55:46.937Z,27.57
2016-12-21T12:56:46.627Z,27.55